sensor_id;sensor_type;location;lat;lon;timestamp;P1;durP1;ratioP1;P2;durP2;ratioP2
51636;SDS011;37713;53.254;6.460;2022-10-01T00:01:03;14.30;;;6.53;;
51636;SDS011;37713;53.254;6.460;2022-10-01T00:03:30;11.73;;;6.40;;
51636;SDS011;37713;53.254;6.460;2022-10-01T00:06:00;12.13;;;6.85;;
51636;SDS011;37713;53.254;6.460;2022-10-01T00:08:28;12.25;;;6.53;;
51636;SDS011;37713;53.254;6.460;2022-10-01T00:10:54;12.43;;;7.28;;
51636;SDS011;37713;53.254;6.460;2022-10-01T00:13:21;13.98;;;7.28;;
51636;SDS011;37713;53.254;6.460;2022-10-01T00:15:47;14.65;;;7.38;;
51636;SDS011;37713;53.254;6.460;2022-10-01T00:18:13;14.02;;;7.60;;
51636;SDS011;37713;53.254;6.460;2022-10-01T00:20:39;13.55;;;7.18;;
51636;SDS011;37713;53.254;6.460;2022-10-01T00:23:11;16.92;;;7.65;;
51636;SDS011;37713;53.254;6.460;2022-10-01T00:25:38;10.75;;;7.28;;
51636;SDS011;37713;53.254;6.460;2022-10-01T00:28:05;10.85;;;7.88;;
51636;SDS011;37713;53.254;6.460;2022-10-01T00:30:31;14.85;;;7.40;;
51636;SDS011;37713;53.254;6.460;2022-10-01T00:32:57;15.50;;;7.97;;
51636;SDS011;37713;53.254;6.460;2022-10-01T00:35:23;14.35;;;8.15;;
51636;SDS011;37713;53.254;6.460;2022-10-01T00:37:49;12.75;;;7.95;;
51636;SDS011;37713;53.254;6.460;2022-10-01T00:40:17;16.02;;;7.85;;
51636;SDS011;37713;53.254;6.460;2022-10-01T00:42:44;12.75;;;7.47;;
51636;SDS011;37713;53.254;6.460;2022-10-01T00:45:11;17.23;;;8.32;;
51636;SDS011;37713;53.254;6.460;2022-10-01T00:47:46;15.35;;;8.73;;
51636;SDS011;37713;53.254;6.460;2022-10-01T00:50:28;12.63;;;8.63;;
51636;SDS011;37713;53.254;6.460;2022-10-01T00:52:58;12.45;;;8.35;;
51636;SDS011;37713;53.254;6.460;2022-10-01T00:55:34;13.73;;;8.45;;
51636;SDS011;37713;53.254;6.460;2022-10-01T00:58:06;16.52;;;8.70;;
51636;SDS011;37713;53.254;6.460;2022-10-01T01:00:34;12.80;;;9.18;;
51636;SDS011;37713;53.254;6.460;2022-10-01T01:03:01;13.32;;;8.63;;
51636;SDS011;37713;53.254;6.460;2022-10-01T01:05:29;12.63;;;8.45;;
51636;SDS011;37713;53.254;6.460;2022-10-01T01:07:54;13.45;;;8.45;;
51636;SDS011;37713;53.254;6.460;2022-10-01T01:10:29;13.73;;;8.20;;
51636;SDS011;37713;53.254;6.460;2022-10-01T01:16:35;11.52;;;7.82;;
51636;SDS011;37713;53.254;6.460;2022-10-01T01:19:19;13.60;;;8.65;;
51636;SDS011;37713;53.254;6.460;2022-10-01T01:21:50;16.33;;;8.37;;
51636;SDS011;37713;53.254;6.460;2022-10-01T01:27:37;13.50;;;8.48;;
51636;SDS011;37713;53.254;6.460;2022-10-01T01:30:10;12.15;;;7.68;;
51636;SDS011;37713;53.254;6.460;2022-10-01T01:32:54;14.45;;;7.80;;
51636;SDS011;37713;53.254;6.460;2022-10-01T01:35:38;13.48;;;7.97;;
51636;SDS011;37713;53.254;6.460;2022-10-01T01:38:09;17.67;;;7.95;;
51636;SDS011;37713;53.254;6.460;2022-10-01T01:40:39;14.40;;;8.18;;
51636;SDS011;37713;53.254;6.460;2022-10-01T01:43:13;11.70;;;7.55;;
51636;SDS011;37713;53.254;6.460;2022-10-01T01:45:44;11.82;;;7.47;;
51636;SDS011;37713;53.254;6.460;2022-10-01T01:48:13;14.68;;;7.70;;
51636;SDS011;37713;53.254;6.460;2022-10-01T01:50:41;17.30;;;7.85;;
51636;SDS011;37713;53.254;6.460;2022-10-01T01:53:13;13.55;;;8.07;;
51636;SDS011;37713;53.254;6.460;2022-10-01T01:55:39;12.43;;;7.10;;
51636;SDS011;37713;53.254;6.460;2022-10-01T01:58:06;16.20;;;7.88;;
51636;SDS011;37713;53.254;6.460;2022-10-01T02:00:32;11.13;;;7.05;;
51636;SDS011;37713;53.254;6.460;2022-10-01T02:02:59;12.27;;;7.82;;
51636;SDS011;37713;53.254;6.460;2022-10-01T02:05:25;16.80;;;7.38;;
51636;SDS011;37713;53.254;6.460;2022-10-01T02:10:42;11.20;;;6.60;;
51636;SDS011;37713;53.254;6.460;2022-10-01T02:24:30;10.00;;;6.00;;
51636;SDS011;37713;53.254;6.460;2022-10-01T02:27:12;9.10;;;5.60;;
51636;SDS011;37713;53.254;6.460;2022-10-01T02:29:59;8.05;;;5.45;;
51636;SDS011;37713;53.254;6.460;2022-10-01T02:32:32;7.78;;;5.20;;
51636;SDS011;37713;53.254;6.460;2022-10-01T02:34:59;9.20;;;5.30;;
51636;SDS011;37713;53.254;6.460;2022-10-01T02:37:26;10.35;;;5.38;;
51636;SDS011;37713;53.254;6.460;2022-10-01T02:39:56;10.75;;;5.28;;
51636;SDS011;37713;53.254;6.460;2022-10-01T02:42:24;10.40;;;4.72;;
51636;SDS011;37713;53.254;6.460;2022-10-01T02:44:52;11.07;;;4.78;;
51636;SDS011;37713;53.254;6.460;2022-10-01T02:47:25;8.77;;;4.60;;
51636;SDS011;37713;53.254;6.460;2022-10-01T02:49:58;10.15;;;4.85;;
51636;SDS011;37713;53.254;6.460;2022-10-01T02:52:31;10.88;;;4.35;;
51636;SDS011;37713;53.254;6.460;2022-10-01T02:55:09;11.82;;;4.75;;
51636;SDS011;37713;53.254;6.460;2022-10-01T02:57:37;8.47;;;4.60;;
51636;SDS011;37713;53.254;6.460;2022-10-01T03:00:08;12.15;;;4.55;;
51636;SDS011;37713;53.254;6.460;2022-10-01T03:02:38;9.40;;;4.55;;
51636;SDS011;37713;53.254;6.460;2022-10-01T03:05:04;15.00;;;5.20;;
51636;SDS011;37713;53.254;6.460;2022-10-01T03:07:31;9.52;;;4.68;;
51636;SDS011;37713;53.254;6.460;2022-10-01T03:10:01;15.45;;;5.00;;
51636;SDS011;37713;53.254;6.460;2022-10-01T03:12:28;13.55;;;4.90;;
51636;SDS011;37713;53.254;6.460;2022-10-01T03:14:54;9.65;;;4.78;;
51636;SDS011;37713;53.254;6.460;2022-10-01T03:17:20;8.93;;;4.68;;
51636;SDS011;37713;53.254;6.460;2022-10-01T03:19:46;7.15;;;4.45;;
51636;SDS011;37713;53.254;6.460;2022-10-01T03:22:12;10.32;;;5.22;;
51636;SDS011;37713;53.254;6.460;2022-10-01T03:24:40;9.00;;;4.57;;
51636;SDS011;37713;53.254;6.460;2022-10-01T03:27:05;8.85;;;4.65;;
51636;SDS011;37713;53.254;6.460;2022-10-01T03:29:31;7.95;;;4.55;;
51636;SDS011;37713;53.254;6.460;2022-10-01T03:31:57;10.10;;;3.90;;
51636;SDS011;37713;53.254;6.460;2022-10-01T03:34:22;7.30;;;4.10;;
51636;SDS011;37713;53.254;6.460;2022-10-01T03:36:48;6.97;;;3.88;;
51636;SDS011;37713;53.254;6.460;2022-10-01T03:39:16;5.63;;;3.72;;
51636;SDS011;37713;53.254;6.460;2022-10-01T03:41:42;6.68;;;4.30;;
51636;SDS011;37713;53.254;6.460;2022-10-01T03:44:08;9.00;;;3.35;;
51636;SDS011;37713;53.254;6.460;2022-10-01T03:46:34;7.00;;;3.72;;
51636;SDS011;37713;53.254;6.460;2022-10-01T03:49:00;6.10;;;2.90;;
51636;SDS011;37713;53.254;6.460;2022-10-01T03:51:27;5.95;;;2.90;;
51636;SDS011;37713;53.254;6.460;2022-10-01T03:53:53;5.90;;;3.10;;
51636;SDS011;37713;53.254;6.460;2022-10-01T03:56:20;9.50;;;3.20;;
51636;SDS011;37713;53.254;6.460;2022-10-01T03:58:46;5.85;;;2.90;;
51636;SDS011;37713;53.254;6.460;2022-10-01T04:01:11;7.68;;;2.75;;
51636;SDS011;37713;53.254;6.460;2022-10-01T04:03:37;5.35;;;2.58;;
51636;SDS011;37713;53.254;6.460;2022-10-01T04:06:03;5.40;;;2.35;;
51636;SDS011;37713;53.254;6.460;2022-10-01T04:08:29;4.07;;;2.30;;
51636;SDS011;37713;53.254;6.460;2022-10-01T04:10:54;4.70;;;2.30;;
51636;SDS011;37713;53.254;6.460;2022-10-01T04:13:20;4.40;;;2.60;;
51636;SDS011;37713;53.254;6.460;2022-10-01T04:15:46;7.15;;;2.60;;
51636;SDS011;37713;53.254;6.460;2022-10-01T04:18:12;3.80;;;2.25;;
51636;SDS011;37713;53.254;6.460;2022-10-01T04:20:42;6.65;;;2.50;;
51636;SDS011;37713;53.254;6.460;2022-10-01T04:23:08;3.60;;;2.15;;
51636;SDS011;37713;53.254;6.460;2022-10-01T04:25:34;3.47;;;2.10;;
51636;SDS011;37713;53.254;6.460;2022-10-01T04:28:01;4.18;;;2.47;;
51636;SDS011;37713;53.254;6.460;2022-10-01T04:30:31;4.20;;;2.30;;
51636;SDS011;37713;53.254;6.460;2022-10-01T04:32:59;5.63;;;2.28;;
51636;SDS011;37713;53.254;6.460;2022-10-01T04:35:25;4.57;;;1.95;;
51636;SDS011;37713;53.254;6.460;2022-10-01T04:37:58;6.07;;;2.25;;
51636;SDS011;37713;53.254;6.460;2022-10-01T04:40:44;5.75;;;2.40;;
51636;SDS011;37713;53.254;6.460;2022-10-01T04:43:10;4.50;;;2.40;;
51636;SDS011;37713;53.254;6.460;2022-10-01T04:45:37;4.93;;;2.55;;
51636;SDS011;37713;53.254;6.460;2022-10-01T04:48:03;6.13;;;2.60;;
51636;SDS011;37713;53.254;6.460;2022-10-01T04:50:29;6.25;;;2.38;;
51636;SDS011;37713;53.254;6.460;2022-10-01T04:52:55;5.70;;;2.92;;
51636;SDS011;37713;53.254;6.460;2022-10-01T04:55:21;4.45;;;2.40;;
51636;SDS011;37713;53.254;6.460;2022-10-01T04:57:47;4.95;;;2.63;;
51636;SDS011;37713;53.254;6.460;2022-10-01T05:00:16;6.13;;;2.60;;
51636;SDS011;37713;53.254;6.460;2022-10-01T05:02:44;9.48;;;3.05;;
51636;SDS011;37713;53.254;6.460;2022-10-01T05:05:12;5.47;;;2.67;;
51636;SDS011;37713;53.254;6.460;2022-10-01T05:07:38;6.45;;;2.85;;
51636;SDS011;37713;53.254;6.460;2022-10-01T05:10:04;6.85;;;2.95;;
51636;SDS011;37713;53.254;6.460;2022-10-01T05:12:31;7.93;;;3.20;;
51636;SDS011;37713;53.254;6.460;2022-10-01T05:14:59;6.47;;;3.15;;
51636;SDS011;37713;53.254;6.460;2022-10-01T05:17:24;4.05;;;2.55;;
51636;SDS011;37713;53.254;6.460;2022-10-01T05:19:50;8.27;;;3.10;;
51636;SDS011;37713;53.254;6.460;2022-10-01T05:22:16;9.73;;;3.38;;
51636;SDS011;37713;53.254;6.460;2022-10-01T05:24:43;5.53;;;2.72;;
51636;SDS011;37713;53.254;6.460;2022-10-01T05:27:09;7.65;;;3.40;;
51636;SDS011;37713;53.254;6.460;2022-10-01T05:29:38;6.07;;;3.45;;
51636;SDS011;37713;53.254;6.460;2022-10-01T05:32:05;5.18;;;2.90;;
51636;SDS011;37713;53.254;6.460;2022-10-01T05:34:36;6.45;;;3.33;;
51636;SDS011;37713;53.254;6.460;2022-10-01T05:37:02;6.60;;;3.40;;
51636;SDS011;37713;53.254;6.460;2022-10-01T05:39:28;9.90;;;3.35;;
51636;SDS011;37713;53.254;6.460;2022-10-01T05:41:58;7.30;;;3.80;;
51636;SDS011;37713;53.254;6.460;2022-10-01T05:44:26;8.75;;;3.80;;
51636;SDS011;37713;53.254;6.460;2022-10-01T05:46:52;6.85;;;3.40;;
51636;SDS011;37713;53.254;6.460;2022-10-01T05:49:18;5.53;;;3.70;;
51636;SDS011;37713;53.254;6.460;2022-10-01T05:51:48;8.18;;;3.97;;
51636;SDS011;37713;53.254;6.460;2022-10-01T05:54:14;6.95;;;4.25;;
51636;SDS011;37713;53.254;6.460;2022-10-01T05:56:43;5.50;;;3.70;;
51636;SDS011;37713;53.254;6.460;2022-10-01T05:59:09;8.27;;;3.75;;
51636;SDS011;37713;53.254;6.460;2022-10-01T06:01:36;6.40;;;4.10;;
51636;SDS011;37713;53.254;6.460;2022-10-01T06:04:02;7.40;;;4.38;;
51636;SDS011;37713;53.254;6.460;2022-10-01T06:06:27;7.15;;;4.20;;
51636;SDS011;37713;53.254;6.460;2022-10-01T06:08:53;7.50;;;4.85;;
51636;SDS011;37713;53.254;6.460;2022-10-01T06:11:19;7.25;;;4.40;;
51636;SDS011;37713;53.254;6.460;2022-10-01T06:13:49;8.45;;;4.28;;
51636;SDS011;37713;53.254;6.460;2022-10-01T06:16:15;8.93;;;4.90;;
51636;SDS011;37713;53.254;6.460;2022-10-01T06:18:41;8.25;;;4.30;;
51636;SDS011;37713;53.254;6.460;2022-10-01T06:21:07;9.88;;;4.60;;
51636;SDS011;37713;53.254;6.460;2022-10-01T06:23:33;8.55;;;4.35;;
51636;SDS011;37713;53.254;6.460;2022-10-01T06:26:00;7.50;;;4.53;;
51636;SDS011;37713;53.254;6.460;2022-10-01T06:28:27;8.45;;;5.20;;
51636;SDS011;37713;53.254;6.460;2022-10-01T06:30:53;11.10;;;5.45;;
51636;SDS011;37713;53.254;6.460;2022-10-01T06:33:19;8.05;;;4.32;;
51636;SDS011;37713;53.254;6.460;2022-10-01T06:35:45;9.77;;;5.40;;
51636;SDS011;37713;53.254;6.460;2022-10-01T06:38:13;9.18;;;5.35;;
51636;SDS011;37713;53.254;6.460;2022-10-01T06:40:40;13.07;;;5.50;;
51636;SDS011;37713;53.254;6.460;2022-10-01T06:43:07;11.30;;;5.53;;
51636;SDS011;37713;53.254;6.460;2022-10-01T06:45:34;12.25;;;5.45;;
51636;SDS011;37713;53.254;6.460;2022-10-01T06:48:05;10.43;;;5.45;;
51636;SDS011;37713;53.254;6.460;2022-10-01T06:50:31;12.50;;;5.45;;
51636;SDS011;37713;53.254;6.460;2022-10-01T06:52:58;12.88;;;5.93;;
51636;SDS011;37713;53.254;6.460;2022-10-01T06:55:30;12.80;;;5.47;;
51636;SDS011;37713;53.254;6.460;2022-10-01T06:58:01;10.60;;;5.15;;
51636;SDS011;37713;53.254;6.460;2022-10-01T07:00:41;11.55;;;5.38;;
51636;SDS011;37713;53.254;6.460;2022-10-01T07:03:09;11.15;;;5.13;;
51636;SDS011;37713;53.254;6.460;2022-10-01T07:05:38;14.10;;;5.80;;
51636;SDS011;37713;53.254;6.460;2022-10-01T07:08:04;9.38;;;5.07;;
51636;SDS011;37713;53.254;6.460;2022-10-01T07:10:31;13.77;;;5.50;;
51636;SDS011;37713;53.254;6.460;2022-10-01T07:13:05;12.30;;;5.38;;
51636;SDS011;37713;53.254;6.460;2022-10-01T07:15:32;9.30;;;5.60;;
51636;SDS011;37713;53.254;6.460;2022-10-01T07:17:58;12.35;;;5.18;;
51636;SDS011;37713;53.254;6.460;2022-10-01T07:20:24;13.60;;;5.38;;
51636;SDS011;37713;53.254;6.460;2022-10-01T07:22:56;12.10;;;4.78;;
51636;SDS011;37713;53.254;6.460;2022-10-01T07:25:23;11.77;;;4.75;;
51636;SDS011;37713;53.254;6.460;2022-10-01T07:27:53;11.38;;;4.72;;
51636;SDS011;37713;53.254;6.460;2022-10-01T07:30:21;12.35;;;4.40;;
51636;SDS011;37713;53.254;6.460;2022-10-01T07:32:48;15.00;;;4.85;;
51636;SDS011;37713;53.254;6.460;2022-10-01T07:35:14;14.20;;;4.07;;
51636;SDS011;37713;53.254;6.460;2022-10-01T07:37:40;14.13;;;4.47;;
51636;SDS011;37713;53.254;6.460;2022-10-01T07:40:06;11.93;;;4.38;;
51636;SDS011;37713;53.254;6.460;2022-10-01T07:42:33;10.98;;;3.70;;
51636;SDS011;37713;53.254;6.460;2022-10-01T07:44:59;14.23;;;4.47;;
51636;SDS011;37713;53.254;6.460;2022-10-01T07:47:28;10.55;;;3.70;;
51636;SDS011;37713;53.254;6.460;2022-10-01T07:49:54;11.48;;;3.83;;
51636;SDS011;37713;53.254;6.460;2022-10-01T07:52:19;9.43;;;3.65;;
51636;SDS011;37713;53.254;6.460;2022-10-01T07:54:45;10.65;;;3.67;;
51636;SDS011;37713;53.254;6.460;2022-10-01T07:57:12;11.82;;;3.08;;
51636;SDS011;37713;53.254;6.460;2022-10-01T07:59:38;8.68;;;3.00;;
51636;SDS011;37713;53.254;6.460;2022-10-01T08:02:05;13.82;;;3.08;;
51636;SDS011;37713;53.254;6.460;2022-10-01T08:04:37;11.27;;;2.90;;
51636;SDS011;37713;53.254;6.460;2022-10-01T08:07:22;19.95;;;3.58;;
51636;SDS011;37713;53.254;6.460;2022-10-01T08:09:47;9.55;;;2.53;;
51636;SDS011;37713;53.254;6.460;2022-10-01T08:12:13;10.73;;;2.60;;
51636;SDS011;37713;53.254;6.460;2022-10-01T08:14:42;11.70;;;2.45;;
51636;SDS011;37713;53.254;6.460;2022-10-01T08:17:07;14.07;;;2.20;;
51636;SDS011;37713;53.254;6.460;2022-10-01T08:19:33;14.55;;;2.70;;
51636;SDS011;37713;53.254;6.460;2022-10-01T08:22:00;13.23;;;2.45;;
51636;SDS011;37713;53.254;6.460;2022-10-01T08:24:26;16.02;;;3.03;;
51636;SDS011;37713;53.254;6.460;2022-10-01T08:26:52;10.93;;;2.22;;
51636;SDS011;37713;53.254;6.460;2022-10-01T08:29:20;13.35;;;2.08;;
51636;SDS011;37713;53.254;6.460;2022-10-01T08:31:46;14.40;;;2.20;;
51636;SDS011;37713;53.254;6.460;2022-10-01T08:34:12;14.93;;;2.55;;
51636;SDS011;37713;53.254;6.460;2022-10-01T08:36:38;15.68;;;2.58;;
51636;SDS011;37713;53.254;6.460;2022-10-01T08:39:04;12.88;;;1.98;;
51636;SDS011;37713;53.254;6.460;2022-10-01T08:41:40;15.40;;;2.38;;
51636;SDS011;37713;53.254;6.460;2022-10-01T08:44:22;9.25;;;1.85;;
51636;SDS011;37713;53.254;6.460;2022-10-01T08:47:05;10.30;;;2.28;;
51636;SDS011;37713;53.254;6.460;2022-10-01T08:49:47;14.45;;;2.33;;
51636;SDS011;37713;53.254;6.460;2022-10-01T08:52:25;11.25;;;1.90;;
51636;SDS011;37713;53.254;6.460;2022-10-01T08:54:59;11.88;;;1.98;;
51636;SDS011;37713;53.254;6.460;2022-10-01T08:57:36;10.75;;;2.00;;
51636;SDS011;37713;53.254;6.460;2022-10-01T09:00:12;10.07;;;2.22;;
51636;SDS011;37713;53.254;6.460;2022-10-01T09:02:40;13.15;;;2.22;;
51636;SDS011;37713;53.254;6.460;2022-10-01T09:05:21;13.98;;;2.85;;
51636;SDS011;37713;53.254;6.460;2022-10-01T09:13:21;10.52;;;2.10;;
51636;SDS011;37713;53.254;6.460;2022-10-01T09:21:35;10.73;;;1.90;;
51636;SDS011;37713;53.254;6.460;2022-10-01T09:27:18;12.45;;;2.05;;
51636;SDS011;37713;53.254;6.460;2022-10-01T09:29:50;9.73;;;1.95;;
51636;SDS011;37713;53.254;6.460;2022-10-01T09:32:29;11.10;;;1.75;;
51636;SDS011;37713;53.254;6.460;2022-10-01T09:36:03;9.48;;;1.65;;
51636;SDS011;37713;53.254;6.460;2022-10-01T09:38:23;8.13;;;1.60;;
51636;SDS011;37713;53.254;6.460;2022-10-01T09:41:06;6.72;;;1.70;;
51636;SDS011;37713;53.254;6.460;2022-10-01T09:43:36;8.73;;;1.58;;
51636;SDS011;37713;53.254;6.460;2022-10-01T09:46:07;10.43;;;1.48;;
51636;SDS011;37713;53.254;6.460;2022-10-01T09:51:45;10.82;;;2.22;;
51636;SDS011;37713;53.254;6.460;2022-10-01T09:54:57;7.65;;;1.42;;
51636;SDS011;37713;53.254;6.460;2022-10-01T09:57:10;9.80;;;1.80;;
51636;SDS011;37713;53.254;6.460;2022-10-01T09:59:55;9.13;;;1.30;;
51636;SDS011;37713;53.254;6.460;2022-10-01T10:02:29;6.30;;;1.50;;
51636;SDS011;37713;53.254;6.460;2022-10-01T10:05:01;6.85;;;1.35;;
51636;SDS011;37713;53.254;6.460;2022-10-01T10:07:28;9.10;;;1.58;;
51636;SDS011;37713;53.254;6.460;2022-10-01T10:09:56;6.85;;;1.30;;
51636;SDS011;37713;53.254;6.460;2022-10-01T10:12:31;10.15;;;1.40;;
51636;SDS011;37713;53.254;6.460;2022-10-01T10:15:05;7.97;;;1.58;;
51636;SDS011;37713;53.254;6.460;2022-10-01T10:17:33;9.07;;;1.65;;
51636;SDS011;37713;53.254;6.460;2022-10-01T10:20:06;11.23;;;1.50;;
51636;SDS011;37713;53.254;6.460;2022-10-01T10:22:35;7.20;;;1.00;;
51636;SDS011;37713;53.254;6.460;2022-10-01T10:25:09;5.88;;;1.20;;
51636;SDS011;37713;53.254;6.460;2022-10-01T10:27:37;5.90;;;1.20;;
51636;SDS011;37713;53.254;6.460;2022-10-01T10:30:19;6.72;;;1.40;;
51636;SDS011;37713;53.254;6.460;2022-10-01T10:32:46;6.07;;;1.10;;
51636;SDS011;37713;53.254;6.460;2022-10-01T10:35:21;7.00;;;1.08;;
51636;SDS011;37713;53.254;6.460;2022-10-01T10:37:51;6.55;;;1.00;;
51636;SDS011;37713;53.254;6.460;2022-10-01T10:40:26;6.90;;;1.08;;
51636;SDS011;37713;53.254;6.460;2022-10-01T10:42:58;5.80;;;1.15;;
51636;SDS011;37713;53.254;6.460;2022-10-01T10:45:34;6.25;;;1.10;;
51636;SDS011;37713;53.254;6.460;2022-10-01T10:48:06;7.47;;;1.00;;
51636;SDS011;37713;53.254;6.460;2022-10-01T10:50:39;6.10;;;1.33;;
51636;SDS011;37713;53.254;6.460;2022-10-01T10:53:21;5.10;;;0.85;;
51636;SDS011;37713;53.254;6.460;2022-10-01T10:56:13;6.55;;;1.17;;
51636;SDS011;37713;53.254;6.460;2022-10-01T10:58:45;7.15;;;1.67;;
51636;SDS011;37713;53.254;6.460;2022-10-01T11:01:12;6.55;;;1.35;;
51636;SDS011;37713;53.254;6.460;2022-10-01T11:04:00;10.45;;;1.40;;
51636;SDS011;37713;53.254;6.460;2022-10-01T11:06:26;4.78;;;0.93;;
51636;SDS011;37713;53.254;6.460;2022-10-01T11:09:02;5.30;;;1.38;;
51636;SDS011;37713;53.254;6.460;2022-10-01T11:11:48;8.00;;;1.27;;
51636;SDS011;37713;53.254;6.460;2022-10-01T11:14:27;6.22;;;1.13;;
51636;SDS011;37713;53.254;6.460;2022-10-01T11:22:48;5.43;;;0.80;;
51636;SDS011;37713;53.254;6.460;2022-10-01T11:25:26;10.55;;;1.42;;
51636;SDS011;37713;53.254;6.460;2022-10-01T11:37:27;6.43;;;1.30;;
51636;SDS011;37713;53.254;6.460;2022-10-01T11:43:13;6.93;;;1.30;;
51636;SDS011;37713;53.254;6.460;2022-10-01T11:45:48;10.35;;;1.50;;
51636;SDS011;37713;53.254;6.460;2022-10-01T11:48:23;7.15;;;1.30;;
51636;SDS011;37713;53.254;6.460;2022-10-01T11:51:01;9.13;;;1.30;;
51636;SDS011;37713;53.254;6.460;2022-10-01T11:56:53;11.02;;;1.30;;
51636;SDS011;37713;53.254;6.460;2022-10-01T11:59:52;10.00;;;1.60;;
51636;SDS011;37713;53.254;6.460;2022-10-01T12:05:17;11.10;;;2.08;;
51636;SDS011;37713;53.254;6.460;2022-10-01T12:10:39;8.68;;;2.13;;
51636;SDS011;37713;53.254;6.460;2022-10-01T12:18:19;13.38;;;1.98;;
51636;SDS011;37713;53.254;6.460;2022-10-01T12:20:48;11.05;;;1.55;;
51636;SDS011;37713;53.254;6.460;2022-10-01T12:23:19;9.60;;;1.42;;
51636;SDS011;37713;53.254;6.460;2022-10-01T12:31:21;12.20;;;1.58;;
51636;SDS011;37713;53.254;6.460;2022-10-01T12:34:05;9.27;;;1.55;;
51636;SDS011;37713;53.254;6.460;2022-10-01T12:36:50;8.38;;;1.88;;
51636;SDS011;37713;53.254;6.460;2022-10-01T12:39:45;9.80;;;1.20;;
51636;SDS011;37713;53.254;6.460;2022-10-01T12:42:48;9.88;;;1.58;;
51636;SDS011;37713;53.254;6.460;2022-10-01T12:47:55;11.55;;;1.83;;
51636;SDS011;37713;53.254;6.460;2022-10-01T12:50:51;11.07;;;1.63;;
51636;SDS011;37713;53.254;6.460;2022-10-01T12:53:31;7.90;;;1.13;;
51636;SDS011;37713;53.254;6.460;2022-10-01T12:56:12;8.20;;;1.15;;
51636;SDS011;37713;53.254;6.460;2022-10-01T12:58:50;7.85;;;1.23;;
51636;SDS011;37713;53.254;6.460;2022-10-01T13:07:24;6.13;;;0.70;;
51636;SDS011;37713;53.254;6.460;2022-10-01T13:10:11;6.68;;;1.10;;
51636;SDS011;37713;53.254;6.460;2022-10-01T13:13:03;8.10;;;1.42;;
51636;SDS011;37713;53.254;6.460;2022-10-01T13:15:36;9.27;;;1.65;;
51636;SDS011;37713;53.254;6.460;2022-10-01T13:20:43;15.68;;;1.70;;
51636;SDS011;37713;53.254;6.460;2022-10-01T13:26:43;10.95;;;1.42;;
51636;SDS011;37713;53.254;6.460;2022-10-01T13:32:01;5.78;;;0.98;;
51636;SDS011;37713;53.254;6.460;2022-10-01T13:34:49;5.05;;;0.95;;
51636;SDS011;37713;53.254;6.460;2022-10-01T13:37:16;5.72;;;1.10;;
51636;SDS011;37713;53.254;6.460;2022-10-01T13:39:44;4.00;;;1.05;;
51636;SDS011;37713;53.254;6.460;2022-10-01T13:42:21;6.88;;;1.20;;
51636;SDS011;37713;53.254;6.460;2022-10-01T13:44:57;6.72;;;1.00;;
51636;SDS011;37713;53.254;6.460;2022-10-01T13:47:25;9.07;;;1.20;;
51636;SDS011;37713;53.254;6.460;2022-10-01T13:49:59;7.70;;;1.48;;
51636;SDS011;37713;53.254;6.460;2022-10-01T13:52:30;6.38;;;1.10;;
51636;SDS011;37713;53.254;6.460;2022-10-01T13:55:00;6.07;;;1.23;;
51636;SDS011;37713;53.254;6.460;2022-10-01T13:57:27;6.38;;;1.20;;
51636;SDS011;37713;53.254;6.460;2022-10-01T14:02:41;7.68;;;1.35;;
51636;SDS011;37713;53.254;6.460;2022-10-01T14:05:37;11.18;;;1.73;;
51636;SDS011;37713;53.254;6.460;2022-10-01T14:10:50;8.18;;;1.88;;
51636;SDS011;37713;53.254;6.460;2022-10-01T14:13:47;6.22;;;1.10;;
51636;SDS011;37713;53.254;6.460;2022-10-01T14:19:05;8.88;;;1.25;;
51636;SDS011;37713;53.254;6.460;2022-10-01T14:30:21;8.93;;;1.40;;
51636;SDS011;37713;53.254;6.460;2022-10-01T14:35:31;9.45;;;1.30;;
51636;SDS011;37713;53.254;6.460;2022-10-01T14:38:12;6.88;;;1.30;;
51636;SDS011;37713;53.254;6.460;2022-10-01T14:40:44;7.22;;;1.13;;
51636;SDS011;37713;53.254;6.460;2022-10-01T14:43:15;8.73;;;1.23;;
51636;SDS011;37713;53.254;6.460;2022-10-01T14:46:04;7.60;;;1.30;;
51636;SDS011;37713;53.254;6.460;2022-10-01T14:48:37;12.32;;;1.77;;
51636;SDS011;37713;53.254;6.460;2022-10-01T14:51:06;9.63;;;1.60;;
51636;SDS011;37713;53.254;6.460;2022-10-01T14:53:46;16.98;;;1.60;;
51636;SDS011;37713;53.254;6.460;2022-10-01T14:56:12;10.52;;;1.45;;
51636;SDS011;37713;53.254;6.460;2022-10-01T14:58:43;10.55;;;1.67;;
51636;SDS011;37713;53.254;6.460;2022-10-01T15:01:18;13.43;;;2.13;;
51636;SDS011;37713;53.254;6.460;2022-10-01T15:03:45;9.70;;;1.80;;
51636;SDS011;37713;53.254;6.460;2022-10-01T15:06:22;11.45;;;1.77;;
51636;SDS011;37713;53.254;6.460;2022-10-01T15:08:53;14.32;;;1.73;;
51636;SDS011;37713;53.254;6.460;2022-10-01T15:11:27;11.18;;;1.63;;
51636;SDS011;37713;53.254;6.460;2022-10-01T15:13:56;7.65;;;2.25;;
51636;SDS011;37713;53.254;6.460;2022-10-01T15:16:27;11.50;;;1.70;;
51636;SDS011;37713;53.254;6.460;2022-10-01T15:18:58;13.48;;;1.90;;
51636;SDS011;37713;53.254;6.460;2022-10-01T15:21:26;9.82;;;2.17;;
51636;SDS011;37713;53.254;6.460;2022-10-01T15:24:03;14.07;;;2.47;;
51636;SDS011;37713;53.254;6.460;2022-10-01T15:26:32;19.10;;;2.60;;
51636;SDS011;37713;53.254;6.460;2022-10-01T15:31:37;17.17;;;2.45;;
51636;SDS011;37713;53.254;6.460;2022-10-01T15:34:04;14.02;;;2.30;;
51636;SDS011;37713;53.254;6.460;2022-10-01T15:36:33;14.93;;;2.03;;
51636;SDS011;37713;53.254;6.460;2022-10-01T15:39:01;12.82;;;2.50;;
51636;SDS011;37713;53.254;6.460;2022-10-01T15:41:29;14.65;;;2.53;;
51636;SDS011;37713;53.254;6.460;2022-10-01T15:43:57;16.42;;;2.58;;
51636;SDS011;37713;53.254;6.460;2022-10-01T15:46:29;16.10;;;2.45;;
51636;SDS011;37713;53.254;6.460;2022-10-01T15:52:16;13.05;;;2.17;;
51636;SDS011;37713;53.254;6.460;2022-10-01T15:54:57;15.38;;;2.83;;
51636;SDS011;37713;53.254;6.460;2022-10-01T15:57:24;13.10;;;2.50;;
51636;SDS011;37713;53.254;6.460;2022-10-01T15:59:53;15.27;;;2.60;;
51636;SDS011;37713;53.254;6.460;2022-10-01T16:02:21;14.57;;;2.83;;
51636;SDS011;37713;53.254;6.460;2022-10-01T16:04:50;13.80;;;2.53;;
51636;SDS011;37713;53.254;6.460;2022-10-01T16:07:21;19.73;;;3.33;;
51636;SDS011;37713;53.254;6.460;2022-10-01T16:09:58;16.33;;;2.60;;
51636;SDS011;37713;53.254;6.460;2022-10-01T16:12:36;16.48;;;2.15;;
51636;SDS011;37713;53.254;6.460;2022-10-01T16:15:03;13.35;;;2.35;;
51636;SDS011;37713;53.254;6.460;2022-10-01T16:17:32;18.77;;;2.70;;
51636;SDS011;37713;53.254;6.460;2022-10-01T16:22:40;15.77;;;2.58;;
51636;SDS011;37713;53.254;6.460;2022-10-01T16:27:48;11.18;;;2.17;;
51636;SDS011;37713;53.254;6.460;2022-10-01T16:30:21;16.75;;;2.67;;
51636;SDS011;37713;53.254;6.460;2022-10-01T16:32:52;17.30;;;2.42;;
51636;SDS011;37713;53.254;6.460;2022-10-01T16:35:19;17.67;;;2.25;;
51636;SDS011;37713;53.254;6.460;2022-10-01T16:37:51;15.32;;;2.50;;
51636;SDS011;37713;53.254;6.460;2022-10-01T16:40:29;14.23;;;2.38;;
51636;SDS011;37713;53.254;6.460;2022-10-01T16:42:57;15.05;;;2.67;;
51636;SDS011;37713;53.254;6.460;2022-10-01T16:45:25;12.23;;;1.90;;
51636;SDS011;37713;53.254;6.460;2022-10-01T16:47:54;11.65;;;2.13;;
51636;SDS011;37713;53.254;6.460;2022-10-01T16:50:23;16.08;;;2.50;;
51636;SDS011;37713;53.254;6.460;2022-10-01T16:52:52;15.23;;;2.38;;
51636;SDS011;37713;53.254;6.460;2022-10-01T16:55:30;18.00;;;2.28;;
51636;SDS011;37713;53.254;6.460;2022-10-01T16:58:00;18.23;;;2.63;;
51636;SDS011;37713;53.254;6.460;2022-10-01T17:00:28;15.02;;;2.25;;
51636;SDS011;37713;53.254;6.460;2022-10-01T17:02:54;14.40;;;2.00;;
51636;SDS011;37713;53.254;6.460;2022-10-01T17:05:21;18.92;;;2.47;;
51636;SDS011;37713;53.254;6.460;2022-10-01T17:07:53;16.75;;;2.72;;